createdAt,value
2022-12-06T00:05:46.163Z,14.7
2022-12-06T00:11:30.343Z,14.1
2022-12-06T00:17:13.184Z,14.7
2022-12-06T00:22:56.209Z,15.3
2022-12-06T00:28:39.616Z,14.8
2022-12-06T00:34:22.481Z,14.5
2022-12-06T00:40:05.977Z,14.1
2022-12-06T00:45:49.324Z,14.5
2022-12-06T00:51:33.218Z,14.8
2022-12-06T00:57:16.257Z,13.9
2022-12-06T01:02:59.764Z,13.5
2022-12-06T01:08:43.504Z,14.3
2022-12-06T01:14:27.591Z,13.9
2022-12-06T01:20:11.581Z,13.7
2022-12-06T01:25:55.076Z,14.1
2022-12-06T01:31:41.238Z,13.9
2022-12-06T01:37:24.245Z,13.9
2022-12-06T01:43:07.308Z,12.9
2022-12-06T01:48:52.750Z,13.5
2022-12-06T01:54:36.251Z,12.2
2022-12-06T02:00:20.106Z,12.6
2022-12-06T02:06:03.661Z,12.6
2022-12-06T02:11:46.670Z,12.7
2022-12-06T02:17:39.259Z,12.1
2022-12-06T02:23:34.634Z,12.1
2022-12-06T02:29:34.796Z,12.2
2022-12-06T02:35:22.272Z,11.9
2022-12-06T02:41:10.022Z,11.9
2022-12-06T02:46:54.652Z,12.1
2022-12-06T02:52:39.516Z,11.8
2022-12-06T02:58:22.672Z,11.4
2022-12-06T03:04:13.044Z,11.8
2022-12-06T03:10:05.533Z,11.1
2022-12-06T03:15:55.357Z,11.4
2022-12-06T03:21:42.784Z,11.4
2022-12-06T03:27:26.840Z,10.4
2022-12-06T03:33:11.192Z,10.6
2022-12-06T03:38:55.887Z,10.6
2022-12-06T03:44:39.298Z,10.7
2022-12-06T03:50:24.596Z,10.3
2022-12-06T03:56:07.997Z,10.5
2022-12-06T04:01:51.138Z,9.7
2022-12-06T04:07:34.486Z,9.6
2022-12-06T04:13:21.774Z,9.5
2022-12-06T04:19:04.855Z,9.3
2022-12-06T04:24:47.705Z,9
2022-12-06T04:30:30.964Z,8.7
2022-12-06T04:36:15.266Z,8.1
2022-12-06T04:41:58.545Z,8.2
2022-12-06T04:47:41.356Z,7.7
2022-12-06T04:53:24.383Z,7.6
2022-12-06T04:59:07.557Z,7.3
2022-12-06T05:04:50.667Z,7.2
2022-12-06T05:10:33.657Z,7.3
2022-12-06T05:16:16.892Z,6.5
2022-12-06T05:21:59.776Z,6.7
2022-12-06T05:27:42.857Z,6.3
2022-12-06T05:33:26.542Z,6.3
2022-12-06T05:39:09.521Z,6.4
2022-12-06T05:44:52.407Z,6.5
2022-12-06T05:50:35.529Z,6.5
2022-12-06T05:56:18.422Z,6.3
2022-12-06T06:02:02.998Z,6
2022-12-06T06:07:46.138Z,5.7
2022-12-06T06:13:29.288Z,5.5
2022-12-06T06:19:12.220Z,5.8
2022-12-06T06:24:56.106Z,5.6
2022-12-06T06:30:39.149Z,5.2
2022-12-06T06:36:22.194Z,5.3
2022-12-06T06:42:05.283Z,5.1
2022-12-06T06:47:48.473Z,5.2
2022-12-06T06:53:31.421Z,5.3
2022-12-06T06:59:14.397Z,5.1
2022-12-06T07:04:58.463Z,5
2022-12-06T07:10:41.402Z,4.9
2022-12-06T07:16:24.856Z,5
2022-12-06T07:22:07.836Z,4.5
2022-12-06T07:27:50.976Z,4.7
2022-12-06T07:33:33.899Z,4.8
2022-12-06T07:39:17.109Z,4.8
2022-12-06T07:45:04.702Z,4.7
2022-12-06T07:50:47.625Z,5
2022-12-06T07:56:30.674Z,4.8
2022-12-06T08:02:18.541Z,4.8
2022-12-06T08:08:01.755Z,4.3
2022-12-06T08:13:44.946Z,4.6
2022-12-06T08:19:28.220Z,4.5
2022-12-06T08:25:11.566Z,4.7
2022-12-06T08:31:04.264Z,4.7
2022-12-06T08:36:47.445Z,4.5
2022-12-06T08:42:32.360Z,4.1
2022-12-06T08:48:15.306Z,4.2
2022-12-06T08:53:58.780Z,4.6
2022-12-06T08:59:41.367Z,4.3
2022-12-06T09:05:24.611Z,4.9
2022-12-06T09:11:08.495Z,4
2022-12-06T09:16:52.201Z,4.5
2022-12-06T09:22:36.232Z,4.2
2022-12-06T09:28:19.115Z,4.1
2022-12-06T09:34:02.041Z,4.2
2022-12-06T09:39:46.164Z,4.2
2022-12-06T09:45:33.663Z,4.1
2022-12-06T09:51:20.821Z,4.3
2022-12-06T09:57:09.071Z,4
2022-12-06T10:03:00.760Z,3.9
2022-12-06T10:08:58.092Z,4
2022-12-06T10:14:51.250Z,3.7
2022-12-06T10:20:40.019Z,3.9
2022-12-06T10:26:27.315Z,3.9
2022-12-06T10:32:16.313Z,3.8
2022-12-06T10:38:07.856Z,4.1
2022-12-06T10:43:55.734Z,4.1
2022-12-06T10:49:45.673Z,3.9
2022-12-06T10:55:33.256Z,3.8
2022-12-06T11:01:19.627Z,3.5
2022-12-06T11:07:04.434Z,3.7
2022-12-06T11:12:47.906Z,3.8
2022-12-06T11:18:31.550Z,3.6
2022-12-06T11:24:18.401Z,3.6
2022-12-06T11:30:03.793Z,3.2
2022-12-06T11:35:47.714Z,3.2
2022-12-06T11:41:34.876Z,3.1
2022-12-06T11:47:21.152Z,3.5
2022-12-06T11:53:07.105Z,3.2
2022-12-06T11:58:54.331Z,3.3
2022-12-06T12:04:42.102Z,3.1
2022-12-06T12:10:32.090Z,2.7
2022-12-06T12:16:20.939Z,3.1
2022-12-06T12:22:09.097Z,3
2022-12-06T12:27:53.393Z,2.8
2022-12-06T12:33:36.654Z,3
2022-12-06T12:39:29.832Z,2.7
2022-12-06T12:45:18.908Z,3.7
2022-12-06T12:51:03.641Z,3
2022-12-06T12:56:46.871Z,3
2022-12-06T13:02:32.250Z,2.9
2022-12-06T13:08:18.218Z,3
2022-12-06T13:14:02.093Z,3.1
2022-12-06T13:19:57.632Z,3.2
2022-12-06T13:25:41.827Z,3.6
2022-12-06T13:31:26.672Z,4
2022-12-06T13:37:18.500Z,3.9
2022-12-06T13:43:02.152Z,4.3
2022-12-06T13:48:49.633Z,4.6
2022-12-06T13:54:37.236Z,4.5
2022-12-06T14:00:31.095Z,4.3
2022-12-06T14:06:17.704Z,4.6
2022-12-06T14:12:01.040Z,4.4
2022-12-06T14:18:05.698Z,4.4
2022-12-06T14:23:50.246Z,5
2022-12-06T14:29:34.361Z,4.7
2022-12-06T14:35:18.991Z,4.8
2022-12-06T14:41:02.083Z,4.6
2022-12-06T14:46:46.281Z,4.9
2022-12-06T14:52:30.678Z,5.1
2022-12-06T14:58:22.122Z,5
2022-12-06T15:04:07.237Z,5.6
2022-12-06T15:09:50.446Z,5.1
2022-12-06T15:15:38.268Z,5.3
2022-12-06T15:21:21.397Z,5.7
2022-12-06T15:27:04.645Z,5.5
2022-12-06T15:32:47.845Z,5.1
2022-12-06T15:38:31.154Z,5.4
2022-12-06T15:44:16.323Z,5.6
2022-12-06T15:49:59.502Z,5.3
2022-12-06T15:55:42.499Z,5.7
2022-12-06T16:01:28.370Z,5.6
2022-12-06T16:07:13.493Z,5.5
2022-12-06T16:12:56.940Z,6
2022-12-06T16:18:39.992Z,6.1
2022-12-06T16:24:23.203Z,5.9
2022-12-06T16:30:08.140Z,6.4
2022-12-06T16:35:53.806Z,6
2022-12-06T16:41:37.807Z,6.4
2022-12-06T16:53:01.731Z,6.7
2022-12-06T16:58:44.608Z,7
2022-12-06T17:04:27.313Z,7.4
2022-12-06T17:10:11.459Z,6.9
2022-12-06T17:15:55.574Z,7
2022-12-06T17:21:38.708Z,7.6
2022-12-06T17:27:21.714Z,7.3
2022-12-06T17:33:04.864Z,7.9
2022-12-06T17:38:48.009Z,8.4
2022-12-06T17:44:31.198Z,8.4
2022-12-06T17:50:14.586Z,8.2
2022-12-06T17:55:57.771Z,8.6
2022-12-06T18:02:13.958Z,8.8
2022-12-06T18:07:43.837Z,8.8
2022-12-06T18:13:30.829Z,9.3
2022-12-06T18:19:14.781Z,9.5
2022-12-06T18:24:57.778Z,8.8
2022-12-06T18:30:41.150Z,10
2022-12-06T18:36:24.181Z,9.4
2022-12-06T18:42:07.331Z,9.4
2022-12-06T18:47:50.092Z,10.1
2022-12-06T18:53:34.747Z,9.7
2022-12-06T18:59:18.253Z,10.6
2022-12-06T19:05:07.942Z,10.7
2022-12-06T19:10:52.165Z,10.8
2022-12-06T19:16:36.156Z,10.3
2022-12-06T19:22:19.582Z,11.3
2022-12-06T19:28:06.279Z,10.6
2022-12-06T19:33:49.486Z,10.6
2022-12-06T19:39:32.656Z,11
2022-12-06T19:45:16.334Z,11.2
2022-12-06T19:50:59.553Z,11
2022-12-06T19:56:43.309Z,11
2022-12-06T20:02:27.518Z,10.6
2022-12-06T20:08:11.993Z,11.2
2022-12-06T20:13:55.498Z,11.2
2022-12-06T20:19:38.608Z,11.1
2022-12-06T20:25:21.938Z,11.6
2022-12-06T20:31:10.321Z,11
2022-12-06T20:36:53.887Z,10.7
2022-12-06T20:42:37.232Z,11.2
2022-12-06T20:48:20.442Z,11.3
2022-12-06T20:54:04.309Z,11.4
2022-12-06T20:59:47.967Z,11.5
2022-12-06T21:05:33.591Z,11.2
2022-12-06T21:11:24.456Z,11.2
2022-12-06T21:17:09.198Z,11.6
2022-12-06T21:22:52.449Z,11.7
2022-12-06T21:28:35.351Z,12
2022-12-06T21:34:18.333Z,11.5
2022-12-06T21:40:03.448Z,11.1
2022-12-06T21:45:47.474Z,11.9
2022-12-06T21:51:32.052Z,11.9
2022-12-06T21:57:15.257Z,12.4
2022-12-06T22:03:00.160Z,11.4
2022-12-06T22:08:44.534Z,11.7
2022-12-06T22:14:27.468Z,11.8
2022-12-06T22:20:12.958Z,11.6
2022-12-06T22:25:56.735Z,11.1
2022-12-06T22:31:41.762Z,11.9
2022-12-06T22:37:30.264Z,11.6
2022-12-06T22:43:13.347Z,11.4
2022-12-06T22:48:56.823Z,11.8
2022-12-06T22:54:39.873Z,11.8
2022-12-06T23:00:22.969Z,11.6
2022-12-06T23:06:06.441Z,11.7
2022-12-06T23:11:49.571Z,12.1
2022-12-06T23:17:34.318Z,11.7
2022-12-06T23:23:17.747Z,12
2022-12-06T23:29:00.943Z,11.8
2022-12-06T23:34:43.947Z,12.2
2022-12-06T23:40:27.213Z,12.1
2022-12-06T23:46:11.823Z,11.5
2022-12-06T23:51:55.414Z,11.3
2022-12-06T23:57:38.678Z,12
